Time;durP1;ratioP1;P1;durP2;ratioP2;P2;SDS_P1;SDS_P2;PMS_P1;PMS_P2;Temp;Humidity;BMP_temperature;BMP_pressure;BME280_temperature;BME280_humidity;BME280_pressure;Samples;Min_cycle;Max_cycle;Signal;HPM_P1;HPM_P2
2023/06/03 00:01:03;;;;;;;17.50;8.68;;;;;;;;;;5077464;28;20059;-63
2023/06/03 00:03:31;;;;;;;18.15;8.40;;;;;;;;;;5077841;28;20492;-64
2023/06/03 00:05:57;;;;;;;17.20;8.65;;;;;;;;;;5076725;28;20032;-61
2023/06/03 00:08:23;;;;;;;18.13;8.93;;;;;;;;;;5077455;28;20498;-62
2023/06/03 00:10:49;;;;;;;17.25;8.80;;;;;;;;;;5059899;28;20061;-64
2023/06/03 00:13:15;;;;;;;18.38;8.50;;;;;;;;;;5077868;28;20383;-63
2023/06/03 00:15:41;;;;;;;17.17;8.73;;;;;;;;;;5077438;28;20066;-59
2023/06/03 00:18:08;;;;;;;15.65;8.25;;;;;;;;;;5077844;28;20021;-61
2023/06/03 00:20:36;;;;;;;20.40;8.40;;;;;;;;;;5078515;28;20563;-64
2023/06/03 00:23:03;;;;;;;19.00;8.77;;;;;;;;;;5059599;28;20070;-63
2023/06/03 00:25:31;;;;;;;17.40;8.37;;;;;;;;;;5077373;28;20024;-64
2023/06/03 00:27:57;;;;;;;16.10;8.43;;;;;;;;;;5077080;28;20293;-64
2023/06/03 00:30:23;;;;;;;17.60;8.43;;;;;;;;;;5077942;28;20032;-65
2023/06/03 00:32:49;;;;;;;20.00;8.60;;;;;;;;;;5059802;28;20067;-65
2023/06/03 00:35:15;;;;;;;16.38;7.68;;;;;;;;;;5076880;28;20132;-65
2023/06/03 00:37:41;;;;;;;18.17;8.65;;;;;;;;;;5077578;28;20133;-63
2023/06/03 00:40:07;;;;;;;16.00;8.10;;;;;;;;;;5058964;28;20115;-64
2023/06/03 00:42:33;;;;;;;16.88;8.55;;;;;;;;;;5044385;22;20049;-59
2023/06/03 00:44:59;;;;;;;15.98;7.72;;;;;;;;;;5011424;28;20091;-57
2023/06/03 00:47:25;;;;;;;15.20;8.07;;;;;;;;;;4995962;28;20050;-60
2023/06/03 00:49:51;;;;;;;17.40;8.18;;;;;;;;;;5007600;28;20126;-60
2023/06/03 00:52:18;;;;;;;19.05;8.30;;;;;;;;;;5006275;28;20492;-61
2023/06/03 00:54:47;;;;;;;16.38;8.15;;;;;;;;;;5011397;28;20075;-60
2023/06/03 00:57:13;;;;;;;15.88;8.30;;;;;;;;;;5022186;28;20110;-61
2023/06/03 00:59:39;;;;;;;17.92;8.45;;;;;;;;;;5024298;28;20478;-58
2023/06/03 01:02:05;;;;;;;17.17;8.45;;;;;;;;;;5032332;28;20047;-58
2023/06/03 01:04:32;;;;;;;17.13;8.15;;;;;;;;;;5030125;28;20025;-60
2023/06/03 01:07:16;;;;;;;18.35;8.90;;;;;;;;;;5024459;28;20175;-58
2023/06/03 01:09:48;;;;;;;17.30;8.60;;;;;;;;;;5031529;28;20033;-59
2023/06/03 01:12:31;;;;;;;15.25;7.90;;;;;;;;;;5030087;28;20025;-58
2023/06/03 01:15:19;;;;;;;16.50;8.80;;;;;;;;;;5031228;28;20036;-59
2023/06/03 01:17:47;;;;;;;16.25;8.48;;;;;;;;;;5031824;28;20129;-61
2023/06/03 01:20:14;;;;;;;19.80;10.40;;;;;;;;;;5031715;28;20025;-61
2023/06/03 01:22:41;;;;;;;17.80;8.98;;;;;;;;;;5031626;28;20033;-61
2023/06/03 01:25:08;;;;;;;17.40;9.05;;;;;;;;;;5030814;28;20405;-58
2023/06/03 01:27:36;;;;;;;15.57;8.30;;;;;;;;;;5029870;28;20040;-60
2023/06/03 01:30:03;;;;;;;15.65;8.27;;;;;;;;;;5031495;28;20076;-62
2023/06/03 01:32:29;;;;;;;17.40;8.55;;;;;;;;;;5031345;28;20049;-60
2023/06/03 01:34:56;;;;;;;17.60;9.20;;;;;;;;;;5030750;28;20033;-60
2023/06/03 01:37:22;;;;;;;16.33;8.98;;;;;;;;;;5031412;28;20028;-61
2023/06/03 01:39:49;;;;;;;18.63;8.20;;;;;;;;;;5031377;28;20109;-59
2023/06/03 01:42:15;;;;;;;18.67;8.82;;;;;;;;;;5031112;28;20452;-59
2023/06/03 01:44:41;;;;;;;17.63;7.80;;;;;;;;;;5030561;28;20405;-60
2023/06/03 01:47:08;;;;;;;15.05;7.35;;;;;;;;;;5030075;28;20116;-59
2023/06/03 01:49:34;;;;;;;17.52;8.10;;;;;;;;;;5031406;28;20034;-60
2023/06/03 01:52:01;;;;;;;18.90;8.00;;;;;;;;;;5031277;28;20041;-56
2023/06/03 01:54:27;;;;;;;17.67;9.02;;;;;;;;;;5030483;28;20112;-60
2023/06/03 01:56:54;;;;;;;15.88;8.48;;;;;;;;;;5031234;28;20478;-60
2023/06/03 01:59:24;;;;;;;15.55;8.13;;;;;;;;;;5029974;28;20633;-60
2023/06/03 02:01:51;;;;;;;15.00;7.97;;;;;;;;;;5029750;28;20041;-60
2023/06/03 02:04:17;;;;;;;15.77;8.17;;;;;;;;;;5029259;28;20033;-60
2023/06/03 02:06:48;;;;;;;14.85;7.70;;;;;;;;;;5029884;28;20272;-57
2023/06/03 02:09:14;;;;;;;15.82;7.78;;;;;;;;;;5030086;28;20417;-59
2023/06/03 02:11:42;;;;;;;16.65;8.00;;;;;;;;;;5030946;28;20024;-59
2023/06/03 02:14:08;;;;;;;14.98;7.68;;;;;;;;;;5029225;28;20065;-54
2023/06/03 02:16:34;;;;;;;15.85;7.72;;;;;;;;;;5026677;28;20034;-60
2023/06/03 02:19:03;;;;;;;14.80;8.02;;;;;;;;;;5018078;28;20025;-59
2023/06/03 02:21:29;;;;;;;15.50;8.20;;;;;;;;;;5024872;28;20109;-59
2023/06/03 02:23:56;;;;;;;17.02;8.15;;;;;;;;;;5026493;28;20045;-59
2023/06/03 02:26:22;;;;;;;15.82;8.20;;;;;;;;;;5029730;28;20091;-59
2023/06/03 02:28:48;;;;;;;16.92;8.15;;;;;;;;;;5024894;28;20037;-58
2023/06/03 02:31:14;;;;;;;16.85;8.27;;;;;;;;;;5033133;28;20419;-60
2023/06/03 02:33:40;;;;;;;17.85;8.77;;;;;;;;;;5034317;28;20025;-60
2023/06/03 02:36:06;;;;;;;20.33;8.20;;;;;;;;;;5033494;28;20029;-61
2023/06/03 02:38:32;;;;;;;14.95;7.85;;;;;;;;;;5034321;28;20022;-59
2023/06/03 02:40:58;;;;;;;15.23;7.88;;;;;;;;;;5032844;28;20041;-60
2023/06/03 02:43:24;;;;;;;16.50;8.27;;;;;;;;;;5034355;28;20029;-61
2023/06/03 02:45:50;;;;;;;15.63;8.20;;;;;;;;;;5033450;28;20485;-60
2023/06/03 02:48:16;;;;;;;15.88;7.97;;;;;;;;;;5034170;28;20037;-60
2023/06/03 02:50:42;;;;;;;15.60;7.88;;;;;;;;;;5033809;28;20082;-59
2023/06/03 02:53:09;;;;;;;16.52;8.32;;;;;;;;;;5033144;28;20021;-57
2023/06/03 02:55:36;;;;;;;14.73;8.15;;;;;;;;;;5032260;28;20045;-57
2023/06/03 02:58:02;;;;;;;15.48;8.07;;;;;;;;;;5032792;28;20052;-55
2023/06/03 03:00:28;;;;;;;14.50;7.90;;;;;;;;;;5033860;28;20060;-54
2023/06/03 03:02:55;;;;;;;14.63;8.30;;;;;;;;;;5033893;28;20029;-60
2023/06/03 03:05:23;;;;;;;16.50;8.00;;;;;;;;;;5033022;28;20104;-61
2023/06/03 03:07:50;;;;;;;16.63;8.10;;;;;;;;;;5033751;28;20021;-61
2023/06/03 03:10:16;;;;;;;15.45;7.70;;;;;;;;;;5033460;28;20029;-60
2023/06/03 03:12:42;;;;;;;17.20;8.02;;;;;;;;;;5033435;28;20025;-60
2023/06/03 03:15:09;;;;;;;14.10;7.95;;;;;;;;;;5031530;28;20490;-58
2023/06/03 03:17:35;;;;;;;18.52;8.20;;;;;;;;;;5033627;28;20059;-59
2023/06/03 03:20:01;;;;;;;17.88;8.65;;;;;;;;;;5032162;28;20017;-57
2023/06/03 03:22:27;;;;;;;18.95;8.48;;;;;;;;;;5033156;28;20095;-58
2023/06/03 03:24:55;;;;;;;16.20;8.40;;;;;;;;;;5031727;28;20056;-56
2023/06/03 03:27:21;;;;;;;16.03;8.47;;;;;;;;;;5032405;28;20040;-58
2023/06/03 03:29:50;;;;;;;16.13;8.10;;;;;;;;;;5032008;28;20405;-58
2023/06/03 03:32:17;;;;;;;15.27;8.02;;;;;;;;;;5031765;28;20035;-61
2023/06/03 03:34:43;;;;;;;18.25;9.02;;;;;;;;;;5032480;28;20026;-60
2023/06/03 03:37:11;;;;;;;16.27;8.02;;;;;;;;;;5032993;28;20030;-57
2023/06/03 03:39:38;;;;;;;;;;;;;;;;;;5033516;28;20414;-56
2023/06/03 03:42:04;;;;;;;15.20;7.85;;;;;;;;;;5048238;28;19913;-60
2023/06/03 03:44:31;;;;;;;16.38;8.45;;;;;;;;;;5031975;28;20116;-58
2023/06/03 03:47:00;;;;;;;14.38;8.07;;;;;;;;;;5032839;28;20048;-57
2023/06/03 03:49:31;;;;;;;14.55;8.00;;;;;;;;;;5033441;28;20030;-59
2023/06/03 03:52:02;;;;;;;16.83;8.15;;;;;;;;;;5032749;28;20026;-59
2023/06/03 03:54:28;;;;;;;15.85;7.97;;;;;;;;;;5032241;28;20021;-59
2023/06/03 03:56:55;;;;;;;17.23;7.95;;;;;;;;;;5032994;28;20436;-56
2023/06/03 03:59:21;;;;;;;15.90;8.10;;;;;;;;;;5033027;28;20025;-56
2023/06/03 04:01:47;;;;;;;14.55;7.90;;;;;;;;;;5032608;28;20114;-57
2023/06/03 04:04:19;;;;;;;17.88;8.30;;;;;;;;;;5031888;28;20041;-60
2023/06/03 04:06:45;;;;;;;14.77;8.68;;;;;;;;;;5031504;28;20029;-60
2023/06/03 04:09:11;;;;;;;16.73;8.90;;;;;;;;;;5032687;28;20101;-60
2023/06/03 04:11:37;;;;;;;15.00;8.52;;;;;;;;;;5032421;28;20037;-60
2023/06/03 04:14:04;;;;;;;16.27;8.68;;;;;;;;;;5032003;28;20426;-57
2023/06/03 04:16:48;;;;;;;16.40;9.05;;;;;;;;;;5032201;28;20025;-60
2023/06/03 04:19:17;;;;;;;15.25;8.70;;;;;;;;;;5031148;28;20628;-61
2023/06/03 04:21:43;;;;;;;16.05;9.23;;;;;;;;;;5032243;28;20029;-58
2023/06/03 04:24:09;;;;;;;15.23;8.43;;;;;;;;;;5030282;28;20511;-56
2023/06/03 04:26:36;;;;;;;16.70;8.70;;;;;;;;;;5032438;28;20033;-61
2023/06/03 04:29:02;;;;;;;15.65;8.70;;;;;;;;;;5033225;28;20075;-58
2023/06/03 04:31:29;;;;;;;16.30;9.35;;;;;;;;;;5032208;28;20025;-59
2023/06/03 04:33:55;;;;;;;16.75;8.80;;;;;;;;;;5031976;28;20028;-60
2023/06/03 04:36:21;;;;;;;14.02;8.23;;;;;;;;;;5030746;28;20385;-60
2023/06/03 04:38:47;;;;;;;15.27;8.55;;;;;;;;;;5032113;28;20025;-60
2023/06/03 04:41:15;;;;;;;17.27;8.95;;;;;;;;;;5032079;28;20032;-58
2023/06/03 04:43:43;;;;;;;15.38;8.70;;;;;;;;;;5031552;28;20482;-59
2023/06/03 04:46:10;;;;;;;16.30;8.82;;;;;;;;;;5031456;28;20053;-61
2023/06/03 04:48:36;;;;;;;15.25;8.85;;;;;;;;;;5031905;28;20026;-57
2023/06/03 04:51:06;;;;;;;15.93;8.90;;;;;;;;;;5031735;28;20022;-59
2023/06/03 04:53:33;;;;;;;15.57;9.07;;;;;;;;;;5030578;28;20018;-61
2023/06/03 04:55:59;;;;;;;17.08;8.88;;;;;;;;;;5030772;28;20084;-58
2023/06/03 04:58:25;;;;;;;15.30;9.25;;;;;;;;;;5031836;28;20093;-58
2023/06/03 05:00:52;;;;;;;15.70;9.57;;;;;;;;;;5030403;28;20129;-60
2023/06/03 05:03:18;;;;;;;19.58;9.10;;;;;;;;;;5030531;28;20033;-56
2023/06/03 05:05:44;;;;;;;17.20;9.05;;;;;;;;;;5029809;28;20061;-60
2023/06/03 05:08:11;;;;;;;15.18;9.10;;;;;;;;;;5031560;28;20061;-60
2023/06/03 05:10:37;;;;;;;16.02;9.38;;;;;;;;;;5031343;28;20067;-60
2023/06/03 05:13:03;;;;;;;15.57;9.38;;;;;;;;;;5030253;28;20060;-60
2023/06/03 05:15:29;;;;;;;15.00;9.05;;;;;;;;;;5030881;28;20025;-60
2023/06/03 05:17:56;;;;;;;16.30;9.10;;;;;;;;;;5031614;28;20163;-60
2023/06/03 05:20:21;;;;;;;14.75;9.30;;;;;;;;;;5031500;28;20421;-61
2023/06/03 05:22:48;;;;;;;15.57;8.85;;;;;;;;;;5031093;28;20083;-60
2023/06/03 05:25:14;;;;;;;18.38;9.32;;;;;;;;;;5030657;28;20032;-58
2023/06/03 05:27:40;;;;;;;15.88;9.55;;;;;;;;;;5031493;28;20022;-59
2023/06/03 05:30:06;;;;;;;16.77;9.60;;;;;;;;;;5031289;28;20029;-59
2023/06/03 05:32:32;;;;;;;15.23;9.40;;;;;;;;;;5031447;28;20112;-59
2023/06/03 05:34:58;;;;;;;14.82;9.40;;;;;;;;;;5030642;28;20125;-61
2023/06/03 05:37:24;;;;;;;16.48;9.80;;;;;;;;;;5031419;28;20025;-60
2023/06/03 05:39:50;;;;;;;16.88;10.38;;;;;;;;;;5029945;28;20032;-60
2023/06/03 05:42:16;;;;;;;15.82;9.20;;;;;;;;;;5029805;28;20033;-60
2023/06/03 05:44:42;;;;;;;14.82;9.45;;;;;;;;;;5030487;28;20025;-60
2023/06/03 05:47:08;;;;;;;14.40;9.30;;;;;;;;;;5031071;28;20036;-60
2023/06/03 05:49:34;;;;;;;15.52;9.30;;;;;;;;;;5031265;28;20100;-60
2023/06/03 05:52:00;;;;;;;16.42;9.93;;;;;;;;;;5031102;28;20037;-60
2023/06/03 05:54:28;;;;;;;16.13;9.93;;;;;;;;;;5030598;28;20477;-57
2023/06/03 05:56:55;;;;;;;18.58;12.02;;;;;;;;;;5034912;28;20017;-61
2023/06/03 05:59:21;;;;;;;18.27;10.90;;;;;;;;;;5034787;28;20057;-55
2023/06/03 06:01:47;;;;;;;15.32;9.52;;;;;;;;;;5034909;28;20065;-58
2023/06/03 06:04:13;;;;;;;15.20;9.40;;;;;;;;;;5034152;28;20021;-58
2023/06/03 06:06:39;;;;;;;15.18;8.98;;;;;;;;;;5026139;28;20021;-58
2023/06/03 06:09:05;;;;;;;16.48;9.98;;;;;;;;;;5018094;28;20121;-57
2023/06/03 06:11:31;;;;;;;15.55;9.57;;;;;;;;;;5031056;28;20435;-57
2023/06/03 06:13:57;;;;;;;14.77;9.43;;;;;;;;;;5032397;28;20030;-58
2023/06/03 06:16:23;;;;;;;15.82;9.50;;;;;;;;;;5019213;28;20055;-58
2023/06/03 06:18:49;;;;;;;14.38;9.48;;;;;;;;;;5014243;28;20041;-57
2023/06/03 06:21:16;;;;;;;15.20;9.52;;;;;;;;;;5014414;28;20030;-56
2023/06/03 06:23:42;;;;;;;17.67;9.70;;;;;;;;;;5014645;28;20034;-55
2023/06/03 06:26:08;;;;;;;15.27;9.70;;;;;;;;;;5013899;28;20545;-57
2023/06/03 06:28:34;;;;;;;14.98;9.48;;;;;;;;;;5029685;28;20125;-57
2023/06/03 06:31:04;;;;;;;15.38;9.73;;;;;;;;;;5014466;28;20026;-57
2023/06/03 06:33:31;;;;;;;16.88;10.00;;;;;;;;;;4993536;28;20022;-56
2023/06/03 06:35:57;;;;;;;15.52;9.98;;;;;;;;;;5005198;28;20421;-58
2023/06/03 06:38:23;;;;;;;15.70;9.90;;;;;;;;;;5030348;28;20033;-60
2023/06/03 06:40:50;;;;;;;18.45;10.50;;;;;;;;;;5023740;28;20108;-54
2023/06/03 06:43:18;;;;;;;15.38;9.68;;;;;;;;;;5062152;22;20076;-62
2023/06/03 06:45:44;;;;;;;14.88;9.35;;;;;;;;;;5046497;28;20031;-61
2023/06/03 06:48:12;;;;;;;15.88;9.93;;;;;;;;;;5048433;28;20069;-63
2023/06/03 06:50:54;;;;;;;17.50;11.00;;;;;;;;;;5049205;28;20480;-62
2023/06/03 06:53:21;;;;;;;15.50;10.43;;;;;;;;;;5055927;28;20060;-62
2023/06/03 06:56:07;;;;;;;15.35;9.82;;;;;;;;;;5053992;28;20698;-63
2023/06/03 06:58:37;;;;;;;15.63;10.40;;;;;;;;;;5046857;28;20554;-62
2023/06/03 07:01:05;;;;;;;17.73;10.20;;;;;;;;;;5051853;28;20040;-63
2023/06/03 07:03:31;;;;;;;21.67;11.05;;;;;;;;;;5044020;28;20022;-63
2023/06/03 07:05:58;;;;;;;15.23;10.30;;;;;;;;;;5055836;28;20063;-58
2023/06/03 07:08:24;;;;;;;16.48;10.63;;;;;;;;;;5058232;28;20434;-63
2023/06/03 07:10:51;;;;;;;15.55;10.68;;;;;;;;;;5059104;28;20036;-63
2023/06/03 07:13:17;;;;;;;16.77;10.52;;;;;;;;;;5057420;28;20576;-60
2023/06/03 07:15:44;;;;;;;16.65;10.23;;;;;;;;;;5045374;28;20025;-64
2023/06/03 07:18:10;;;;;;;15.38;10.05;;;;;;;;;;5054378;28;20075;-61
2023/06/03 07:20:39;;;;;;;17.45;10.25;;;;;;;;;;5038426;28;20041;-63
2023/06/03 07:23:10;;;;;;;15.10;10.38;;;;;;;;;;5049127;28;20025;-60
2023/06/03 07:25:46;;;;;;;15.18;10.60;;;;;;;;;;5046692;28;20032;-56
2023/06/03 07:28:16;;;;;;;16.50;10.45;;;;;;;;;;5032003;28;20021;-55
2023/06/03 07:30:43;;;;;;;17.48;10.60;;;;;;;;;;5046666;28;20068;-56
2023/06/03 07:33:10;;;;;;;15.75;10.38;;;;;;;;;;5031560;28;20075;-57
2023/06/03 07:35:36;;;;;;;16.35;10.88;;;;;;;;;;5046061;28;20077;-56
2023/06/03 07:38:03;;;;;;;15.88;10.70;;;;;;;;;;5031498;28;20108;-55
2023/06/03 07:40:42;;;;;;;16.45;10.50;;;;;;;;;;5031533;28;20052;-58
2023/06/03 07:43:12;;;;;;;16.77;10.90;;;;;;;;;;5031459;28;20044;-56
2023/06/03 07:45:38;;;;;;;18.90;11.05;;;;;;;;;;5046308;28;20553;-53
2023/06/03 07:48:04;;;;;;;21.52;10.63;;;;;;;;;;5031567;28;20025;-56
2023/06/03 07:50:32;;;;;;;16.67;10.32;;;;;;;;;;5031498;28;20029;-55
2023/06/03 07:52:59;;;;;;;15.77;10.70;;;;;;;;;;5031547;28;20075;-57
2023/06/03 07:55:25;;;;;;;17.10;10.48;;;;;;;;;;5046160;28;20031;-57
2023/06/03 07:57:51;;;;;;;16.65;11.18;;;;;;;;;;5031281;28;20481;-56
2023/06/03 08:00:17;;;;;;;16.38;10.70;;;;;;;;;;5031244;28;20034;-57
2023/06/03 08:02:44;;;;;;;16.00;10.65;;;;;;;;;;5032598;28;20144;-57
2023/06/03 08:05:10;;;;;;;18.67;10.82;;;;;;;;;;5043652;28;20108;-57
2023/06/03 08:07:37;;;;;;;16.25;10.70;;;;;;;;;;5038533;28;20528;-58
2023/06/03 08:10:04;;;;;;;15.88;10.73;;;;;;;;;;5038973;28;20367;-58
2023/06/03 08:12:34;;;;;;;16.95;11.00;;;;;;;;;;5040569;28;20025;-57
2023/06/03 08:15:01;;;;;;;17.17;12.27;;;;;;;;;;5030197;28;20044;-53
2023/06/03 08:17:40;;;;;;;17.88;10.70;;;;;;;;;;5045345;28;20053;-57
2023/06/03 08:20:10;;;;;;;17.85;11.10;;;;;;;;;;5030897;28;20040;-58
2023/06/03 08:22:36;;;;;;;17.40;10.80;;;;;;;;;;5030920;28;20484;-51
2023/06/03 08:25:02;;;;;;;16.02;10.63;;;;;;;;;;5045527;28;20117;-56
2023/06/03 08:27:30;;;;;;;16.58;10.82;;;;;;;;;;5030721;28;20025;-58
2023/06/03 08:29:57;;;;;;;;;;;;;;;;;;5031173;28;20029;-61
2023/06/03 08:32:23;;;;;;;17.17;11.30;;;;;;;;;;5030447;28;20408;-58
2023/06/03 08:34:49;;;;;;;15.95;11.50;;;;;;;;;;5029621;28;20484;-62
2023/06/03 08:37:15;;;;;;;15.98;11.35;;;;;;;;;;5030171;28;20492;-61
2023/06/03 08:39:42;;;;;;;15.48;11.50;;;;;;;;;;5043863;28;20450;-61
2023/06/03 08:42:09;;;;;;;16.08;11.30;;;;;;;;;;5028080;28;20026;-61
2023/06/03 08:44:38;;;;;;;15.95;11.30;;;;;;;;;;5027806;28;20030;-58
2023/06/03 08:47:15;;;;;;;18.80;10.75;;;;;;;;;;5028693;28;20033;-61
2023/06/03 08:49:44;;;;;;;15.60;10.82;;;;;;;;;;5028654;28;20026;-59
2023/06/03 08:52:10;;;;;;;16.20;10.90;;;;;;;;;;5043812;28;20053;-62
2023/06/03 08:54:38;;;;;;;17.08;10.95;;;;;;;;;;5041162;28;20068;-59
2023/06/03 08:57:08;;;;;;;15.93;11.10;;;;;;;;;;5030195;28;20102;-61
2023/06/03 08:59:37;;;;;;;18.33;11.25;;;;;;;;;;5030341;28;20026;-59
2023/06/03 09:02:05;;;;;;;19.98;11.50;;;;;;;;;;5045582;28;20367;-59
2023/06/03 09:04:31;;;;;;;17.25;10.85;;;;;;;;;;5029590;28;20025;-62
2023/06/03 09:06:58;;;;;;;17.58;11.07;;;;;;;;;;5045630;28;20013;-60
2023/06/03 09:09:25;;;;;;;19.83;10.82;;;;;;;;;;5030363;28;20248;-62
2023/06/03 09:11:51;;;;;;;16.00;10.70;;;;;;;;;;5029792;28;20041;-62
2023/06/03 09:14:18;;;;;;;17.02;11.23;;;;;;;;;;5029313;28;20484;-62
2023/06/03 09:16:44;;;;;;;16.15;10.50;;;;;;;;;;5030381;28;20017;-62
2023/06/03 09:19:11;;;;;;;16.88;10.50;;;;;;;;;;5030240;28;20021;-60
2023/06/03 09:21:37;;;;;;;18.60;10.27;;;;;;;;;;5030112;28;20496;-63
2023/06/03 09:24:03;;;;;;;15.75;10.63;;;;;;;;;;5029452;28;20030;-56
2023/06/03 09:26:29;;;;;;;14.70;10.10;;;;;;;;;;5045018;28;20045;-61
2023/06/03 09:28:55;;;;;;;17.27;10.70;;;;;;;;;;5045804;28;20038;-62
2023/06/03 09:31:22;;;;;;;15.57;10.60;;;;;;;;;;5034109;28;20025;-57
2023/06/03 09:33:48;;;;;;;15.63;10.70;;;;;;;;;;5033624;28;20032;-59
2023/06/03 09:36:18;;;;;;;16.58;10.75;;;;;;;;;;5033289;28;20021;-61
2023/06/03 09:38:54;;;;;;;16.00;10.77;;;;;;;;;;5049381;28;20482;-61
2023/06/03 09:41:22;;;;;;;16.45;10.85;;;;;;;;;;5049280;28;20116;-59
2023/06/03 09:43:54;;;;;;;15.57;10.57;;;;;;;;;;5033536;28;20041;-61
2023/06/03 09:46:20;;;;;;;17.38;11.10;;;;;;;;;;5033225;28;20489;-57
2023/06/03 09:48:46;;;;;;;15.02;10.43;;;;;;;;;;5033355;28;20029;-59
2023/06/03 09:51:12;;;;;;;15.40;10.80;;;;;;;;;;5033504;28;20028;-61
2023/06/03 09:53:38;;;;;;;16.27;10.20;;;;;;;;;;5047127;28;20017;-61
2023/06/03 09:56:23;;;;;;;24.38;11.30;;;;;;;;;;5032394;28;20056;-61
2023/06/03 09:58:51;;;;;;;18.65;10.50;;;;;;;;;;5033415;28;20041;-60
2023/06/03 10:01:28;;;;;;;17.38;10.65;;;;;;;;;;5033571;28;20493;-59
2023/06/03 10:04:01;;;;;;;15.20;10.68;;;;;;;;;;5032729;28;20478;-59
2023/06/03 10:06:27;;;;;;;15.63;10.93;;;;;;;;;;5032271;28;20040;-60
2023/06/03 10:08:53;;;;;;;16.00;10.65;;;;;;;;;;5041182;28;20025;-60
2023/06/03 10:11:20;;;;;;;16.10;10.63;;;;;;;;;;5039809;28;20117;-61
2023/06/03 10:13:47;;;;;;;21.23;10.77;;;;;;;;;;5041224;28;20553;-58
2023/06/03 10:16:13;;;;;;;15.15;10.75;;;;;;;;;;5040522;28;20028;-60
2023/06/03 10:18:40;;;;;;;17.27;10.68;;;;;;;;;;5051151;28;20092;-61
2023/06/03 10:21:07;;;;;;;18.30;10.48;;;;;;;;;;5033523;28;20121;-61
2023/06/03 10:23:34;;;;;;;15.43;10.68;;;;;;;;;;5032814;28;20037;-58
2023/06/03 10:26:00;;;;;;;16.23;10.60;;;;;;;;;;5036291;28;20028;-61
2023/06/03 10:28:26;;;;;;;15.43;10.52;;;;;;;;;;5042645;28;20033;-62
2023/06/03 10:30:52;;;;;;;14.63;10.38;;;;;;;;;;5037802;28;20030;-61
2023/06/03 10:33:19;;;;;;;14.50;10.38;;;;;;;;;;5034711;28;20350;-58
2023/06/03 10:35:45;;;;;;;17.23;10.85;;;;;;;;;;5036523;28;20117;-59
2023/06/03 10:38:11;;;;;;;16.08;11.23;;;;;;;;;;5047356;28;20018;-59
2023/06/03 10:40:37;;;;;;;17.17;11.30;;;;;;;;;;5036114;28;20167;-60
2023/06/03 10:43:03;;;;;;;14.70;10.93;;;;;;;;;;5039526;28;20080;-61
2023/06/03 10:45:30;;;;;;;17.23;10.82;;;;;;;;;;5034875;28;20116;-61
2023/06/03 10:48:06;;;;;;;15.65;10.85;;;;;;;;;;5032384;28;20026;-61
2023/06/03 10:50:47;;;;;;;15.77;11.40;;;;;;;;;;5032449;28;20395;-60
2023/06/03 10:53:17;;;;;;;15.15;10.90;;;;;;;;;;5032434;28;20014;-60
2023/06/03 10:55:52;;;;;;;15.00;10.57;;;;;;;;;;5031479;28;20022;-60
2023/06/03 10:58:20;;;;;;;16.52;11.10;;;;;;;;;;5032258;28;20150;-55
2023/06/03 11:00:59;;;;;;;15.68;11.07;;;;;;;;;;5031907;28;20030;-59
2023/06/03 11:03:48;;;;;;;15.02;10.75;;;;;;;;;;5031910;28;20472;-61
2023/06/03 11:06:17;;;;;;;15.05;10.60;;;;;;;;;;4994292;28;20124;-58
2023/06/03 11:09:02;;;;;;;14.48;10.63;;;;;;;;;;5032164;28;20033;-60
2023/06/03 11:11:40;;;;;;;16.08;11.35;;;;;;;;;;5031542;28;20029;-62
2023/06/03 11:14:06;;;;;;;17.15;11.35;;;;;;;;;;4677785;28;10000092;-62
2023/06/03 11:16:51;;;;;;;15.68;11.30;;;;;;;;;;5043164;28;20027;-61
2023/06/03 11:19:30;;;;;;;16.10;10.95;;;;;;;;;;5009270;28;20112;-62
2023/06/03 11:21:57;;;;;;;15.35;11.30;;;;;;;;;;5043617;28;20113;-62
2023/06/03 11:24:38;;;;;;;17.45;11.25;;;;;;;;;;5027472;28;20033;-61
2023/06/03 11:27:13;;;;;;;15.40;11.43;;;;;;;;;;5028572;28;20052;-62
2023/06/03 11:29:45;;;;;;;16.17;11.10;;;;;;;;;;5043584;28;20033;-62
2023/06/03 11:32:15;;;;;;;18.23;12.27;;;;;;;;;;5028619;28;20532;-62
2023/06/03 11:34:41;;;;;;;16.52;11.40;;;;;;;;;;5042461;28;20537;-62
2023/06/03 11:37:07;;;;;;;18.05;12.02;;;;;;;;;;5042942;28;20025;-61
2023/06/03 11:39:52;;;;;;;15.32;11.73;;;;;;;;;;5028177;28;20025;-62
2023/06/03 11:42:18;;;;;;;16.55;11.90;;;;;;;;;;5008372;28;20030;-59
2023/06/03 11:44:44;;;;;;;15.23;11.45;;;;;;;;;;5010115;28;20653;-62
2023/06/03 11:47:10;;;;;;;15.68;11.20;;;;;;;;;;5016742;28;20051;-61
2023/06/03 11:49:37;;;;;;;15.05;11.18;;;;;;;;;;5030629;28;20040;-61
2023/06/03 11:52:05;;;;;;;17.92;11.55;;;;;;;;;;5031138;28;20079;-60
2023/06/03 11:54:31;;;;;;;16.00;11.10;;;;;;;;;;4681163;28;9999711;-60
2023/06/03 11:56:58;;;;;;;16.38;11.68;;;;;;;;;;5032594;28;20083;-61
2023/06/03 11:59:42;;;;;;;15.85;11.18;;;;;;;;;;5035987;28;20025;-62
2023/06/03 12:02:08;;;;;;;15.85;11.07;;;;;;;;;;5027507;28;20064;-62
2023/06/03 12:04:35;;;;;;;15.82;11.15;;;;;;;;;;5026788;28;20021;-62
2023/06/03 12:07:02;;;;;;;14.93;10.85;;;;;;;;;;5026473;28;20370;-62
2023/06/03 12:09:29;;;;;;;15.15;11.27;;;;;;;;;;5029689;28;20028;-63
2023/06/03 12:11:56;;;;;;;15.57;11.75;;;;;;;;;;5028915;28;20033;-61
2023/06/03 12:14:32;;;;;;;15.50;11.90;;;;;;;;;;5028034;28;20056;-63
2023/06/03 12:17:13;;;;;;;16.55;11.60;;;;;;;;;;5028550;28;20022;-62
2023/06/03 12:19:39;;;;;;;16.48;11.82;;;;;;;;;;5029446;28;20021;-62
2023/06/03 12:22:06;;;;;;;16.15;12.05;;;;;;;;;;5029341;28;20021;-60
2023/06/03 12:24:32;;;;;;;15.40;12.18;;;;;;;;;;5028517;28;20029;-62
2023/06/03 12:27:17;;;;;;;15.88;11.75;;;;;;;;;;5029428;28;20029;-61
2023/06/03 12:29:48;;;;;;;20.80;12.32;;;;;;;;;;5029109;28;20032;-61
2023/06/03 12:32:14;;;;;;;15.57;11.75;;;;;;;;;;5030437;28;20017;-62
2023/06/03 12:34:40;;;;;;;15.52;11.27;;;;;;;;;;5029882;28;20441;-61
2023/06/03 12:37:07;;;;;;;17.15;11.50;;;;;;;;;;5030407;28;20496;-60
2023/06/03 12:39:50;;;;;;;17.52;12.18;;;;;;;;;;5030345;28;20104;-62
2023/06/03 12:42:20;;;;;;;15.43;11.60;;;;;;;;;;5054755;22;20081;-59
2023/06/03 12:44:52;;;;;;;16.48;11.70;;;;;;;;;;5029492;28;20072;-61
2023/06/03 12:47:20;;;;;;;17.30;12.25;;;;;;;;;;5031965;28;20105;-62
2023/06/03 12:50:02;;;;;;;15.45;11.95;;;;;;;;;;5031848;28;20079;-61
2023/06/03 12:52:31;;;;;;;20.08;12.10;;;;;;;;;;5030612;28;20033;-62
2023/06/03 12:54:57;;;;;;;18.15;12.30;;;;;;;;;;5030985;28;20413;-61
2023/06/03 12:57:23;;;;;;;16.50;12.10;;;;;;;;;;5030645;28;20049;-61
2023/06/03 13:00:04;;;;;;;18.25;12.00;;;;;;;;;;5031950;28;20439;-61
2023/06/03 13:02:30;;;;;;;15.88;11.90;;;;;;;;;;5030114;28;20037;-61
2023/06/03 13:04:56;;;;;;;16.25;12.10;;;;;;;;;;5030303;28;20490;-61
2023/06/03 13:07:23;;;;;;;15.77;12.43;;;;;;;;;;5030122;28;20082;-61
2023/06/03 13:09:49;;;;;;;16.10;12.20;;;;;;;;;;5031903;28;20025;-61
2023/06/03 13:12:15;;;;;;;16.38;11.82;;;;;;;;;;5030741;28;20481;-60
2023/06/03 13:14:43;;;;;;;16.15;12.15;;;;;;;;;;5029553;28;20492;-59
2023/06/03 13:17:09;;;;;;;16.10;12.10;;;;;;;;;;5030551;28;20466;-61
2023/06/03 13:19:36;;;;;;;16.17;12.68;;;;;;;;;;5031586;28;20029;-61
2023/06/03 13:22:02;;;;;;;15.43;12.63;;;;;;;;;;5031662;28;20329;-61
2023/06/03 13:24:28;;;;;;;19.98;13.10;;;;;;;;;;5029351;28;20049;-61
2023/06/03 13:26:54;;;;;;;17.02;12.43;;;;;;;;;;5030989;28;20033;-62
2023/06/03 13:29:20;;;;;;;15.93;12.48;;;;;;;;;;5030153;28;20487;-61
2023/06/03 13:31:46;;;;;;;16.02;12.38;;;;;;;;;;5029702;28;20068;-62
2023/06/03 13:34:12;;;;;;;15.85;12.32;;;;;;;;;;5028962;28;20474;-61
2023/06/03 13:36:38;;;;;;;15.20;12.25;;;;;;;;;;5031229;28;20378;-62
2023/06/03 13:39:04;;;;;;;16.73;12.70;;;;;;;;;;5029824;28;20028;-61
2023/06/03 13:41:30;;;;;;;17.02;12.98;;;;;;;;;;5031125;28;20076;-62
2023/06/03 13:43:56;;;;;;;16.00;12.80;;;;;;;;;;5030064;28;20061;-61
2023/06/03 13:46:22;;;;;;;17.15;12.60;;;;;;;;;;5029649;28;20034;-62
2023/06/03 13:48:48;;;;;;;15.75;12.60;;;;;;;;;;5030962;28;20021;-62
2023/06/03 13:51:14;;;;;;;15.60;12.70;;;;;;;;;;5030925;28;20116;-61
2023/06/03 13:53:40;;;;;;;17.27;12.60;;;;;;;;;;5030850;28;20018;-61
2023/06/03 13:56:06;;;;;;;15.88;12.52;;;;;;;;;;5030335;28;20036;-61
2023/06/03 13:58:32;;;;;;;16.77;12.57;;;;;;;;;;5030801;28;20026;-62
2023/06/03 14:00:58;;;;;;;16.40;13.00;;;;;;;;;;5030585;28;20029;-62
2023/06/03 14:03:24;;;;;;;15.57;12.35;;;;;;;;;;5029651;28;20252;-62
2023/06/03 14:05:50;;;;;;;17.80;12.25;;;;;;;;;;5028604;28;20539;-61
2023/06/03 14:08:16;;;;;;;16.83;12.85;;;;;;;;;;5030516;28;20486;-62
2023/06/03 14:10:42;;;;;;;15.57;11.98;;;;;;;;;;5030776;28;20028;-62
2023/06/03 14:13:10;;;;;;;15.38;12.35;;;;;;;;;;5029343;28;20029;-62
2023/06/03 14:15:36;;;;;;;15.82;12.15;;;;;;;;;;5029773;28;20385;-61
2023/06/03 14:18:02;;;;;;;15.60;12.50;;;;;;;;;;5034576;28;20032;-62
2023/06/03 14:20:29;;;;;;;15.60;12.70;;;;;;;;;;5033030;28;20022;-62
2023/06/03 14:22:55;;;;;;;17.58;13.27;;;;;;;;;;5034494;28;20029;-59
2023/06/03 14:25:21;;;;;;;16.05;12.55;;;;;;;;;;5032275;28;20500;-61
2023/06/03 14:27:47;;;;;;;17.10;13.35;;;;;;;;;;5034340;28;20025;-62